sensor_id;sensor_type;location;lat;lon;timestamp;temperature;humidity
66343;DHT22;53144;51.524;5.080;2024-01-06T00:01:16;6.32;99.00
66343;DHT22;53144;51.524;5.080;2024-01-06T00:03:42;6.28;99.04
66343;DHT22;53144;51.524;5.080;2024-01-06T00:06:07;6.29;98.63
66343;DHT22;53144;51.524;5.080;2024-01-06T00:08:36;6.21;98.35
66343;DHT22;53144;51.524;5.080;2024-01-06T00:11:01;6.11;98.58
66343;DHT22;53144;51.524;5.080;2024-01-06T00:13:28;6.15;98.69
66343;DHT22;53144;51.524;5.080;2024-01-06T00:15:53;6.05;98.53
66343;DHT22;53144;51.524;5.080;2024-01-06T00:18:19;6.11;98.63
66343;DHT22;53144;51.524;5.080;2024-01-06T00:20:44;6.11;98.71
66343;DHT22;53144;51.524;5.080;2024-01-06T00:23:09;6.13;98.64
66343;DHT22;53144;51.524;5.080;2024-01-06T00:25:35;6.01;98.79
66343;DHT22;53144;51.524;5.080;2024-01-06T00:28:00;6.13;99.10
66343;DHT22;53144;51.524;5.080;2024-01-06T00:30:25;6.13;98.99
66343;DHT22;53144;51.524;5.080;2024-01-06T00:32:51;6.05;98.78
66343;DHT22;53144;51.524;5.080;2024-01-06T00:35:16;5.95;98.69
66343;DHT22;53144;51.524;5.080;2024-01-06T00:37:42;5.99;98.92
66343;DHT22;53144;51.524;5.080;2024-01-06T00:40:07;6.01;99.12
66343;DHT22;53144;51.524;5.080;2024-01-06T00:42:32;6.04;99.30
66343;DHT22;53144;51.524;5.080;2024-01-06T00:44:58;5.97;98.86
66343;DHT22;53144;51.524;5.080;2024-01-06T00:47:23;6.04;99.38
66343;DHT22;53144;51.524;5.080;2024-01-06T00:49:49;6.02;98.66
66343;DHT22;53144;51.524;5.080;2024-01-06T00:52:15;5.98;98.75
66343;DHT22;53144;51.524;5.080;2024-01-06T00:54:40;5.91;99.25
66343;DHT22;53144;51.524;5.080;2024-01-06T00:57:05;5.88;99.34
66343;DHT22;53144;51.524;5.080;2024-01-06T00:59:31;5.88;99.25
66343;DHT22;53144;51.524;5.080;2024-01-06T01:01:56;5.88;99.51
66343;DHT22;53144;51.524;5.080;2024-01-06T01:04:21;5.82;99.53
66343;DHT22;53144;51.524;5.080;2024-01-06T01:06:47;5.82;99.03
66343;DHT22;53144;51.524;5.080;2024-01-06T01:09:12;5.81;98.99
66343;DHT22;53144;51.524;5.080;2024-01-06T01:11:39;5.75;99.24
66343;DHT22;53144;51.524;5.080;2024-01-06T01:14:05;5.73;99.32
66343;DHT22;53144;51.524;5.080;2024-01-06T01:16:30;5.70;99.08
66343;DHT22;53144;51.524;5.080;2024-01-06T01:18:57;5.71;98.95
66343;DHT22;53144;51.524;5.080;2024-01-06T01:21:23;5.71;99.22
66343;DHT22;53144;51.524;5.080;2024-01-06T01:23:49;5.74;99.63
66343;DHT22;53144;51.524;5.080;2024-01-06T01:26:14;5.67;99.46
66343;DHT22;53144;51.524;5.080;2024-01-06T01:28:39;5.64;99.40
66343;DHT22;53144;51.524;5.080;2024-01-06T01:31:05;5.61;99.23
66343;DHT22;53144;51.524;5.080;2024-01-06T01:33:30;5.63;99.13
66343;DHT22;53144;51.524;5.080;2024-01-06T01:35:56;5.57;99.12
66343;DHT22;53144;51.524;5.080;2024-01-06T01:38:21;5.67;99.41
66343;DHT22;53144;51.524;5.080;2024-01-06T01:40:46;5.65;98.86
66343;DHT22;53144;51.524;5.080;2024-01-06T01:43:18;5.58;98.31
66343;DHT22;53144;51.524;5.080;2024-01-06T01:45:45;5.58;98.10
66343;DHT22;53144;51.524;5.080;2024-01-06T01:48:13;5.63;97.86
66343;DHT22;53144;51.524;5.080;2024-01-06T01:50:39;5.51;96.95
66343;DHT22;53144;51.524;5.080;2024-01-06T01:53:05;5.55;97.64
66343;DHT22;53144;51.524;5.080;2024-01-06T01:55:31;5.51;97.40
66343;DHT22;53144;51.524;5.080;2024-01-06T01:57:56;5.50;97.21
66343;DHT22;53144;51.524;5.080;2024-01-06T02:00:22;5.51;96.86
66343;DHT22;53144;51.524;5.080;2024-01-06T02:02:50;5.47;96.49
66343;DHT22;53144;51.524;5.080;2024-01-06T02:05:36;5.48;96.19
66343;DHT22;53144;51.524;5.080;2024-01-06T02:08:01;5.44;96.54
66343;DHT22;53144;51.524;5.080;2024-01-06T02:10:26;5.37;95.31
66343;DHT22;53144;51.524;5.080;2024-01-06T02:12:52;5.44;95.88
66343;DHT22;53144;51.524;5.080;2024-01-06T02:15:18;5.42;95.80
66343;DHT22;53144;51.524;5.080;2024-01-06T02:17:44;5.43;95.38
66343;DHT22;53144;51.524;5.080;2024-01-06T02:20:11;5.37;95.79
66343;DHT22;53144;51.524;5.080;2024-01-06T02:22:37;5.34;95.33
66343;DHT22;53144;51.524;5.080;2024-01-06T02:25:05;5.34;95.24
66343;DHT22;53144;51.524;5.080;2024-01-06T02:27:33;5.30;95.57
66343;DHT22;53144;51.524;5.080;2024-01-06T02:29:58;5.46;96.47
66343;DHT22;53144;51.524;5.080;2024-01-06T02:32:23;5.27;95.80
66343;DHT22;53144;51.524;5.080;2024-01-06T02:34:49;5.26;96.24
66343;DHT22;53144;51.524;5.080;2024-01-06T02:37:14;5.29;95.97
66343;DHT22;53144;51.524;5.080;2024-01-06T02:39:39;5.27;95.85
66343;DHT22;53144;51.524;5.080;2024-01-06T02:42:05;5.24;95.82
66343;DHT22;53144;51.524;5.080;2024-01-06T02:44:30;5.09;95.45
66343;DHT22;53144;51.524;5.080;2024-01-06T02:46:56;5.05;95.96
66343;DHT22;53144;51.524;5.080;2024-01-06T02:49:21;4.99;96.20
66343;DHT22;53144;51.524;5.080;2024-01-06T02:51:46;5.03;96.69
66343;DHT22;53144;51.524;5.080;2024-01-06T02:54:12;5.15;96.22
66343;DHT22;53144;51.524;5.080;2024-01-06T02:56:37;5.08;96.78
66343;DHT22;53144;51.524;5.080;2024-01-06T02:59:04;5.02;97.20
66343;DHT22;53144;51.524;5.080;2024-01-06T03:01:29;5.03;97.25
66343;DHT22;53144;51.524;5.080;2024-01-06T03:03:54;4.96;97.03
66343;DHT22;53144;51.524;5.080;2024-01-06T03:06:20;5.02;97.55
66343;DHT22;53144;51.524;5.080;2024-01-06T03:08:45;4.95;97.05
66343;DHT22;53144;51.524;5.080;2024-01-06T03:11:10;5.00;97.23
66343;DHT22;53144;51.524;5.080;2024-01-06T03:13:36;4.95;96.83
66343;DHT22;53144;51.524;5.080;2024-01-06T03:16:04;5.03;96.55
66343;DHT22;53144;51.524;5.080;2024-01-06T03:18:33;4.97;95.31
66343;DHT22;53144;51.524;5.080;2024-01-06T03:20:58;4.92;94.86
66343;DHT22;53144;51.524;5.080;2024-01-06T03:23:23;4.82;94.24
66343;DHT22;53144;51.524;5.080;2024-01-06T03:25:49;4.95;95.23
66343;DHT22;53144;51.524;5.080;2024-01-06T03:28:14;4.89;95.08
66343;DHT22;53144;51.524;5.080;2024-01-06T03:30:40;4.88;94.49
66343;DHT22;53144;51.524;5.080;2024-01-06T03:33:06;5.08;94.40
66343;DHT22;53144;51.524;5.080;2024-01-06T03:35:32;4.81;94.44
66343;DHT22;53144;51.524;5.080;2024-01-06T03:37:57;4.86;94.03
66343;DHT22;53144;51.524;5.080;2024-01-06T03:40:22;4.92;95.36
66343;DHT22;53144;51.524;5.080;2024-01-06T03:42:48;4.96;94.39
66343;DHT22;53144;51.524;5.080;2024-01-06T03:45:14;4.82;94.22
66343;DHT22;53144;51.524;5.080;2024-01-06T03:47:39;4.96;94.51
66343;DHT22;53144;51.524;5.080;2024-01-06T03:50:05;4.89;94.10
66343;DHT22;53144;51.524;5.080;2024-01-06T03:52:30;4.92;95.53
66343;DHT22;53144;51.524;5.080;2024-01-06T03:54:56;4.99;94.99
66343;DHT22;53144;51.524;5.080;2024-01-06T03:57:21;5.03;94.57
66343;DHT22;53144;51.524;5.080;2024-01-06T03:59:46;5.15;94.26
66343;DHT22;53144;51.524;5.080;2024-01-06T04:02:12;5.09;95.06
66343;DHT22;53144;51.524;5.080;2024-01-06T04:04:37;4.95;94.97
66343;DHT22;53144;51.524;5.080;2024-01-06T04:07:03;5.03;95.23
66343;DHT22;53144;51.524;5.080;2024-01-06T04:09:28;5.11;95.61
66343;DHT22;53144;51.524;5.080;2024-01-06T04:11:54;4.91;95.23
66343;DHT22;53144;51.524;5.080;2024-01-06T04:14:19;4.84;95.91
66343;DHT22;53144;51.524;5.080;2024-01-06T04:16:44;4.85;96.02
66343;DHT22;53144;51.524;5.080;2024-01-06T04:19:10;4.96;96.58
66343;DHT22;53144;51.524;5.080;2024-01-06T04:21:38;5.09;96.07
66343;DHT22;53144;51.524;5.080;2024-01-06T04:24:03;4.99;96.03
66343;DHT22;53144;51.524;5.080;2024-01-06T04:26:29;4.92;95.57
66343;DHT22;53144;51.524;5.080;2024-01-06T04:28:54;5.02;95.48
66343;DHT22;53144;51.524;5.080;2024-01-06T04:31:19;4.84;95.36
66343;DHT22;53144;51.524;5.080;2024-01-06T04:33:45;4.86;96.09
66343;DHT22;53144;51.524;5.080;2024-01-06T04:36:10;4.76;95.93
66343;DHT22;53144;51.524;5.080;2024-01-06T04:38:36;4.76;96.39
66343;DHT22;53144;51.524;5.080;2024-01-06T04:41:01;4.79;95.43
66343;DHT22;53144;51.524;5.080;2024-01-06T04:43:26;4.78;95.76
66343;DHT22;53144;51.524;5.080;2024-01-06T04:45:52;4.72;96.23
66343;DHT22;53144;51.524;5.080;2024-01-06T04:48:18;4.76;95.83
66343;DHT22;53144;51.524;5.080;2024-01-06T04:50:44;4.75;95.86
66343;DHT22;53144;51.524;5.080;2024-01-06T04:53:09;4.58;96.14
66343;DHT22;53144;51.524;5.080;2024-01-06T04:55:34;4.71;95.52
66343;DHT22;53144;51.524;5.080;2024-01-06T04:58:00;4.61;95.75
66343;DHT22;53144;51.524;5.080;2024-01-06T05:00:25;4.55;95.68
66343;DHT22;53144;51.524;5.080;2024-01-06T05:02:51;4.44;95.95
66343;DHT22;53144;51.524;5.080;2024-01-06T05:05:17;4.62;96.72
66343;DHT22;53144;51.524;5.080;2024-01-06T05:07:42;4.51;96.27
66343;DHT22;53144;51.524;5.080;2024-01-06T05:10:08;4.44;95.56
66343;DHT22;53144;51.524;5.080;2024-01-06T05:12:33;4.48;95.81
66343;DHT22;53144;51.524;5.080;2024-01-06T05:14:59;4.44;95.94
66343;DHT22;53144;51.524;5.080;2024-01-06T05:17:24;4.54;96.18
66343;DHT22;53144;51.524;5.080;2024-01-06T05:19:49;4.48;96.08
66343;DHT22;53144;51.524;5.080;2024-01-06T05:22:15;4.36;95.52
66343;DHT22;53144;51.524;5.080;2024-01-06T05:24:40;4.58;96.16
66343;DHT22;53144;51.524;5.080;2024-01-06T05:27:06;4.57;95.90
66343;DHT22;53144;51.524;5.080;2024-01-06T05:29:31;4.51;95.71
66343;DHT22;53144;51.524;5.080;2024-01-06T05:31:56;4.53;95.82
66343;DHT22;53144;51.524;5.080;2024-01-06T05:34:22;4.50;95.24
66343;DHT22;53144;51.524;5.080;2024-01-06T05:36:48;4.57;94.66
66343;DHT22;53144;51.524;5.080;2024-01-06T05:39:14;4.47;94.39
66343;DHT22;53144;51.524;5.080;2024-01-06T05:41:40;4.55;94.91
66343;DHT22;53144;51.524;5.080;2024-01-06T05:44:05;4.55;94.84
66343;DHT22;53144;51.524;5.080;2024-01-06T05:46:31;4.65;94.55
66343;DHT22;53144;51.524;5.080;2024-01-06T05:48:57;4.67;94.67
66343;DHT22;53144;51.524;5.080;2024-01-06T05:51:23;4.58;94.65
66343;DHT22;53144;51.524;5.080;2024-01-06T05:53:49;4.51;94.72
66343;DHT22;53144;51.524;5.080;2024-01-06T05:56:26;4.50;95.15
66343;DHT22;53144;51.524;5.080;2024-01-06T05:58:53;4.54;94.86
66343;DHT22;53144;51.524;5.080;2024-01-06T06:01:18;4.50;94.68
66343;DHT22;53144;51.524;5.080;2024-01-06T06:03:44;4.47;94.45
66343;DHT22;53144;51.524;5.080;2024-01-06T06:06:09;4.48;94.72
66343;DHT22;53144;51.524;5.080;2024-01-06T06:08:35;4.48;94.56
66343;DHT22;53144;51.524;5.080;2024-01-06T06:11:00;4.53;94.16
66343;DHT22;53144;51.524;5.080;2024-01-06T06:13:29;4.53;94.34
66343;DHT22;53144;51.524;5.080;2024-01-06T06:15:55;4.57;94.99
66343;DHT22;53144;51.524;5.080;2024-01-06T06:18:20;4.43;94.56
66343;DHT22;53144;51.524;5.080;2024-01-06T06:20:46;4.41;95.13
66343;DHT22;53144;51.524;5.080;2024-01-06T06:23:12;4.53;95.22
66343;DHT22;53144;51.524;5.080;2024-01-06T06:25:40;4.50;95.21
66343;DHT22;53144;51.524;5.080;2024-01-06T06:28:06;4.41;95.25
66343;DHT22;53144;51.524;5.080;2024-01-06T06:30:32;4.40;95.69
66343;DHT22;53144;51.524;5.080;2024-01-06T06:32:57;4.36;96.40
66343;DHT22;53144;51.524;5.080;2024-01-06T06:35:23;4.40;96.21
66343;DHT22;53144;51.524;5.080;2024-01-06T06:37:49;4.30;96.75
66343;DHT22;53144;51.524;5.080;2024-01-06T06:40:14;4.26;96.47
66343;DHT22;53144;51.524;5.080;2024-01-06T06:42:40;4.29;96.73
66343;DHT22;53144;51.524;5.080;2024-01-06T06:45:05;4.20;96.62
66343;DHT22;53144;51.524;5.080;2024-01-06T06:47:31;4.34;96.72
66343;DHT22;53144;51.524;5.080;2024-01-06T06:49:56;4.18;96.67
66343;DHT22;53144;51.524;5.080;2024-01-06T06:52:22;4.10;96.55
66343;DHT22;53144;51.524;5.080;2024-01-06T06:54:48;4.16;97.02
66343;DHT22;53144;51.524;5.080;2024-01-06T06:57:15;4.23;96.92
66343;DHT22;53144;51.524;5.080;2024-01-06T06:59:40;4.10;97.06
66343;DHT22;53144;51.524;5.080;2024-01-06T07:02:06;4.11;97.21
66343;DHT22;53144;51.524;5.080;2024-01-06T07:04:31;4.11;97.03
66343;DHT22;53144;51.524;5.080;2024-01-06T07:06:56;4.20;97.14
66343;DHT22;53144;51.524;5.080;2024-01-06T07:09:22;4.29;96.71
66343;DHT22;53144;51.524;5.080;2024-01-06T07:11:50;4.24;96.93
66343;DHT22;53144;51.524;5.080;2024-01-06T07:14:16;4.23;97.45
66343;DHT22;53144;51.524;5.080;2024-01-06T07:16:42;4.32;97.19
66343;DHT22;53144;51.524;5.080;2024-01-06T07:19:07;4.37;97.05
66343;DHT22;53144;51.524;5.080;2024-01-06T07:21:32;4.40;95.99
66343;DHT22;53144;51.524;5.080;2024-01-06T07:23:58;4.44;96.60
66343;DHT22;53144;51.524;5.080;2024-01-06T07:26:24;4.33;96.10
66343;DHT22;53144;51.524;5.080;2024-01-06T07:28:49;4.32;95.71
66343;DHT22;53144;51.524;5.080;2024-01-06T07:31:15;4.27;95.92
66343;DHT22;53144;51.524;5.080;2024-01-06T07:33:42;4.33;96.01
66343;DHT22;53144;51.524;5.080;2024-01-06T07:36:07;4.34;96.01
66343;DHT22;53144;51.524;5.080;2024-01-06T07:38:33;4.38;95.75
66343;DHT22;53144;51.524;5.080;2024-01-06T07:40:58;4.38;95.89
66343;DHT22;53144;51.524;5.080;2024-01-06T07:43:24;4.27;94.97
66343;DHT22;53144;51.524;5.080;2024-01-06T07:45:49;4.20;95.00
66343;DHT22;53144;51.524;5.080;2024-01-06T07:48:16;4.30;95.48
66343;DHT22;53144;51.524;5.080;2024-01-06T07:50:41;4.29;95.24
66343;DHT22;53144;51.524;5.080;2024-01-06T07:53:07;4.27;94.98
66343;DHT22;53144;51.524;5.080;2024-01-06T07:55:32;4.30;95.05
66343;DHT22;53144;51.524;5.080;2024-01-06T07:57:58;4.26;95.00
66343;DHT22;53144;51.524;5.080;2024-01-06T08:00:23;4.24;94.95
66343;DHT22;53144;51.524;5.080;2024-01-06T08:02:49;4.24;95.00
66343;DHT22;53144;51.524;5.080;2024-01-06T08:05:14;4.36;94.40
66343;DHT22;53144;51.524;5.080;2024-01-06T08:07:40;4.29;95.31
66343;DHT22;53144;51.524;5.080;2024-01-06T08:10:05;4.37;95.46
66343;DHT22;53144;51.524;5.080;2024-01-06T08:12:31;4.34;95.41
66343;DHT22;53144;51.524;5.080;2024-01-06T08:14:57;4.34;95.11
66343;DHT22;53144;51.524;5.080;2024-01-06T08:17:22;4.40;94.78
66343;DHT22;53144;51.524;5.080;2024-01-06T08:19:48;4.45;94.37
66343;DHT22;53144;51.524;5.080;2024-01-06T08:22:14;4.47;95.40
66343;DHT22;53144;51.524;5.080;2024-01-06T08:24:39;4.41;95.32
66343;DHT22;53144;51.524;5.080;2024-01-06T08:27:05;4.36;94.32
66343;DHT22;53144;51.524;5.080;2024-01-06T08:29:31;4.27;94.69
66343;DHT22;53144;51.524;5.080;2024-01-06T08:31:56;4.40;93.96
66343;DHT22;53144;51.524;5.080;2024-01-06T08:34:22;4.32;94.81
66343;DHT22;53144;51.524;5.080;2024-01-06T08:36:47;4.43;94.43
66343;DHT22;53144;51.524;5.080;2024-01-06T08:39:14;4.50;94.87
66343;DHT22;53144;51.524;5.080;2024-01-06T08:41:39;4.34;94.48
66343;DHT22;53144;51.524;5.080;2024-01-06T08:44:04;4.38;94.82
66343;DHT22;53144;51.524;5.080;2024-01-06T08:46:30;4.30;94.55
66343;DHT22;53144;51.524;5.080;2024-01-06T08:48:56;4.45;94.76
66343;DHT22;53144;51.524;5.080;2024-01-06T08:51:21;4.34;95.03
66343;DHT22;53144;51.524;5.080;2024-01-06T08:53:47;4.47;94.56
66343;DHT22;53144;51.524;5.080;2024-01-06T08:56:13;4.36;94.16
66343;DHT22;53144;51.524;5.080;2024-01-06T08:58:38;4.44;94.88
66343;DHT22;53144;51.524;5.080;2024-01-06T09:01:04;4.36;94.43
66343;DHT22;53144;51.524;5.080;2024-01-06T09:03:29;4.43;94.98
66343;DHT22;53144;51.524;5.080;2024-01-06T09:05:56;4.37;95.17
66343;DHT22;53144;51.524;5.080;2024-01-06T09:08:23;4.40;95.56
66343;DHT22;53144;51.524;5.080;2024-01-06T09:10:49;4.29;95.41
66343;DHT22;53144;51.524;5.080;2024-01-06T09:13:17;4.34;95.33
66343;DHT22;53144;51.524;5.080;2024-01-06T09:15:47;4.30;95.21
66343;DHT22;53144;51.524;5.080;2024-01-06T09:18:16;4.30;95.45
66343;DHT22;53144;51.524;5.080;2024-01-06T09:20:41;4.23;95.45
66343;DHT22;53144;51.524;5.080;2024-01-06T09:23:07;4.27;95.52
66343;DHT22;53144;51.524;5.080;2024-01-06T09:25:32;4.16;96.06
66343;DHT22;53144;51.524;5.080;2024-01-06T09:27:58;4.13;96.13
66343;DHT22;53144;51.524;5.080;2024-01-06T09:30:24;4.16;96.43
66343;DHT22;53144;51.524;5.080;2024-01-06T09:32:51;4.18;96.63
66343;DHT22;53144;51.524;5.080;2024-01-06T09:35:16;4.24;96.33
66343;DHT22;53144;51.524;5.080;2024-01-06T09:37:41;4.20;95.91
66343;DHT22;53144;51.524;5.080;2024-01-06T09:40:11;4.24;96.31
66343;DHT22;53144;51.524;5.080;2024-01-06T09:42:43;4.30;96.42
66343;DHT22;53144;51.524;5.080;2024-01-06T09:45:08;4.18;97.05
66343;DHT22;53144;51.524;5.080;2024-01-06T09:47:34;4.20;96.82
66343;DHT22;53144;51.524;5.080;2024-01-06T09:50:01;4.07;96.57
66343;DHT22;53144;51.524;5.080;2024-01-06T09:52:32;4.18;96.64
66343;DHT22;53144;51.524;5.080;2024-01-06T09:54:59;4.16;97.27
66343;DHT22;53144;51.524;5.080;2024-01-06T09:57:25;4.05;96.86
66343;DHT22;53144;51.524;5.080;2024-01-06T09:59:51;4.07;97.03
66343;DHT22;53144;51.524;5.080;2024-01-06T10:02:20;4.23;97.00
66343;DHT22;53144;51.524;5.080;2024-01-06T10:04:51;4.21;96.22
66343;DHT22;53144;51.524;5.080;2024-01-06T10:07:16;4.18;96.40
66343;DHT22;53144;51.524;5.080;2024-01-06T10:09:42;4.16;96.46
66343;DHT22;53144;51.524;5.080;2024-01-06T10:12:08;4.16;96.40
66343;DHT22;53144;51.524;5.080;2024-01-06T10:14:35;4.27;96.30
66343;DHT22;53144;51.524;5.080;2024-01-06T10:17:01;4.29;96.08
66343;DHT22;53144;51.524;5.080;2024-01-06T10:19:26;4.29;96.44
66343;DHT22;53144;51.524;5.080;2024-01-06T10:21:52;4.29;96.53
66343;DHT22;53144;51.524;5.080;2024-01-06T10:24:20;4.33;95.87
66343;DHT22;53144;51.524;5.080;2024-01-06T10:26:46;4.36;95.42
66343;DHT22;53144;51.524;5.080;2024-01-06T10:29:13;4.23;95.52
66343;DHT22;53144;51.524;5.080;2024-01-06T10:31:38;4.24;95.62
66343;DHT22;53144;51.524;5.080;2024-01-06T10:34:04;4.27;95.80
66343;DHT22;53144;51.524;5.080;2024-01-06T10:36:29;4.36;96.33
66343;DHT22;53144;51.524;5.080;2024-01-06T10:38:57;4.38;96.35
66343;DHT22;53144;51.524;5.080;2024-01-06T10:41:22;4.27;96.21
66343;DHT22;53144;51.524;5.080;2024-01-06T10:43:50;4.26;96.27
66343;DHT22;53144;51.524;5.080;2024-01-06T10:46:18;4.23;96.56
66343;DHT22;53144;51.524;5.080;2024-01-06T10:48:44;4.27;96.81
66343;DHT22;53144;51.524;5.080;2024-01-06T10:51:14;4.24;96.14
66343;DHT22;53144;51.524;5.080;2024-01-06T10:53:41;4.11;95.64
66343;DHT22;53144;51.524;5.080;2024-01-06T10:56:07;4.29;95.29
66343;DHT22;53144;51.524;5.080;2024-01-06T10:58:34;4.11;96.08
66343;DHT22;53144;51.524;5.080;2024-01-06T11:01:03;4.21;96.27
66343;DHT22;53144;51.524;5.080;2024-01-06T11:03:28;4.29;95.47
66343;DHT22;53144;51.524;5.080;2024-01-06T11:05:54;4.37;95.77
66343;DHT22;53144;51.524;5.080;2024-01-06T11:08:21;4.44;95.54
66343;DHT22;53144;51.524;5.080;2024-01-06T11:10:50;4.38;94.97
66343;DHT22;53144;51.524;5.080;2024-01-06T11:13:21;4.27;95.58
66343;DHT22;53144;51.524;5.080;2024-01-06T11:15:51;4.43;95.94
66343;DHT22;53144;51.524;5.080;2024-01-06T11:18:37;4.54;95.94
66343;DHT22;53144;51.524;5.080;2024-01-06T11:26:45;4.69;93.59
66343;DHT22;53144;51.524;5.080;2024-01-06T11:29:10;4.60;93.14
66343;DHT22;53144;51.524;5.080;2024-01-06T11:31:37;4.57;93.02
66343;DHT22;53144;51.524;5.080;2024-01-06T11:34:12;4.68;92.16
66343;DHT22;53144;51.524;5.080;2024-01-06T11:36:39;4.51;92.01
66343;DHT22;53144;51.524;5.080;2024-01-06T11:39:05;4.47;91.91
66343;DHT22;53144;51.524;5.080;2024-01-06T11:41:50;4.54;90.95
66343;DHT22;53144;51.524;5.080;2024-01-06T11:44:22;4.50;90.96
66343;DHT22;53144;51.524;5.080;2024-01-06T11:46:48;4.57;90.50
66343;DHT22;53144;51.524;5.080;2024-01-06T11:49:15;4.51;91.30
66343;DHT22;53144;51.524;5.080;2024-01-06T11:51:41;4.51;91.13
66343;DHT22;53144;51.524;5.080;2024-01-06T11:54:08;4.48;90.87
66343;DHT22;53144;51.524;5.080;2024-01-06T11:56:34;4.47;92.01
66343;DHT22;53144;51.524;5.080;2024-01-06T11:59:00;4.40;90.91
66343;DHT22;53144;51.524;5.080;2024-01-06T12:01:25;4.21;90.72
66343;DHT22;53144;51.524;5.080;2024-01-06T12:03:54;4.14;90.35
66343;DHT22;53144;51.524;5.080;2024-01-06T12:06:20;4.32;91.68
66343;DHT22;53144;51.524;5.080;2024-01-06T12:08:49;4.14;90.71
66343;DHT22;53144;51.524;5.080;2024-01-06T12:11:18;4.38;91.00
66343;DHT22;53144;51.524;5.080;2024-01-06T12:13:44;4.30;89.78
66343;DHT22;53144;51.524;5.080;2024-01-06T12:16:12;4.33;90.38
66343;DHT22;53144;51.524;5.080;2024-01-06T12:18:38;4.29;90.99
66343;DHT22;53144;51.524;5.080;2024-01-06T12:21:03;4.32;90.82
66343;DHT22;53144;51.524;5.080;2024-01-06T12:23:29;4.26;90.94
66343;DHT22;53144;51.524;5.080;2024-01-06T12:25:55;4.36;88.60
66343;DHT22;53144;51.524;5.080;2024-01-06T12:28:21;4.27;89.31
66343;DHT22;53144;51.524;5.080;2024-01-06T12:30:46;4.36;89.45
66343;DHT22;53144;51.524;5.080;2024-01-06T12:33:12;4.43;88.74
66343;DHT22;53144;51.524;5.080;2024-01-06T12:35:39;4.43;89.49
66343;DHT22;53144;51.524;5.080;2024-01-06T12:38:04;4.50;89.49
66343;DHT22;53144;51.524;5.080;2024-01-06T12:40:35;4.21;89.68
66343;DHT22;53144;51.524;5.080;2024-01-06T12:43:00;4.14;90.40
66343;DHT22;53144;51.524;5.080;2024-01-06T12:45:26;4.30;89.95
66343;DHT22;53144;51.524;5.080;2024-01-06T12:47:53;4.27;89.46
66343;DHT22;53144;51.524;5.080;2024-01-06T12:50:19;4.36;89.35
66343;DHT22;53144;51.524;5.080;2024-01-06T12:52:44;4.23;88.92
66343;DHT22;53144;51.524;5.080;2024-01-06T12:55:11;4.36;89.19
66343;DHT22;53144;51.524;5.080;2024-01-06T12:57:36;4.26;89.89
66343;DHT22;53144;51.524;5.080;2024-01-06T13:00:02;4.29;90.06
66343;DHT22;53144;51.524;5.080;2024-01-06T13:02:29;4.24;90.26
66343;DHT22;53144;51.524;5.080;2024-01-06T13:04:54;4.21;90.56
66343;DHT22;53144;51.524;5.080;2024-01-06T13:07:20;4.32;89.51
66343;DHT22;53144;51.524;5.080;2024-01-06T13:09:50;4.18;89.30
66343;DHT22;53144;51.524;5.080;2024-01-06T13:12:16;4.26;90.37
66343;DHT22;53144;51.524;5.080;2024-01-06T13:14:43;4.36;90.27
66343;DHT22;53144;51.524;5.080;2024-01-06T13:17:09;4.27;89.61
66343;DHT22;53144;51.524;5.080;2024-01-06T13:19:35;4.34;89.75
66343;DHT22;53144;51.524;5.080;2024-01-06T13:22:00;4.38;90.28
66343;DHT22;53144;51.524;5.080;2024-01-06T13:24:25;4.36;90.12
66343;DHT22;53144;51.524;5.080;2024-01-06T13:26:51;4.29;90.39
66343;DHT22;53144;51.524;5.080;2024-01-06T13:29:20;4.21;90.33
66343;DHT22;53144;51.524;5.080;2024-01-06T13:31:45;4.26;90.61
66343;DHT22;53144;51.524;5.080;2024-01-06T13:34:11;4.34;90.31
66343;DHT22;53144;51.524;5.080;2024-01-06T13:36:36;4.30;90.19
66343;DHT22;53144;51.524;5.080;2024-01-06T13:39:02;4.33;90.24
66343;DHT22;53144;51.524;5.080;2024-01-06T13:41:29;4.32;90.15
66343;DHT22;53144;51.524;5.080;2024-01-06T13:43:54;4.21;90.04
66343;DHT22;53144;51.524;5.080;2024-01-06T13:46:20;4.18;90.61
66343;DHT22;53144;51.524;5.080;2024-01-06T13:48:45;4.26;90.70
66343;DHT22;53144;51.524;5.080;2024-01-06T13:51:11;4.29;89.40
66343;DHT22;53144;51.524;5.080;2024-01-06T13:53:36;4.20;90.46
66343;DHT22;53144;51.524;5.080;2024-01-06T13:56:02;4.27;89.79
66343;DHT22;53144;51.524;5.080;2024-01-06T13:58:28;4.14;90.75
66343;DHT22;53144;51.524;5.080;2024-01-06T14:00:53;4.06;90.56
66343;DHT22;53144;51.524;5.080;2024-01-06T14:03:19;4.17;90.94
66343;DHT22;53144;51.524;5.080;2024-01-06T14:05:44;4.10;91.02
66343;DHT22;53144;51.524;5.080;2024-01-06T14:08:10;4.06;91.03
66343;DHT22;53144;51.524;5.080;2024-01-06T14:10:35;4.10;91.33
66343;DHT22;53144;51.524;5.080;2024-01-06T14:13:03;4.11;91.69
66343;DHT22;53144;51.524;5.080;2024-01-06T14:15:28;4.11;92.28
66343;DHT22;53144;51.524;5.080;2024-01-06T14:17:56;4.10;91.51
66343;DHT22;53144;51.524;5.080;2024-01-06T14:20:21;4.03;91.07
66343;DHT22;53144;51.524;5.080;2024-01-06T14:22:50;4.09;90.79
66343;DHT22;53144;51.524;5.080;2024-01-06T14:25:15;4.14;90.70
66343;DHT22;53144;51.524;5.080;2024-01-06T14:27:44;4.23;89.43
66343;DHT22;53144;51.524;5.080;2024-01-06T14:30:10;4.27;89.81
66343;DHT22;53144;51.524;5.080;2024-01-06T14:32:36;4.20;90.14
66343;DHT22;53144;51.524;5.080;2024-01-06T14:35:04;4.14;90.60
66343;DHT22;53144;51.524;5.080;2024-01-06T14:37:31;4.07;90.64
66343;DHT22;53144;51.524;5.080;2024-01-06T14:39:57;4.09;90.29
66343;DHT22;53144;51.524;5.080;2024-01-06T14:42:22;4.17;91.19
66343;DHT22;53144;51.524;5.080;2024-01-06T14:44:50;4.21;91.38
66343;DHT22;53144;51.524;5.080;2024-01-06T14:47:16;4.11;90.94
66343;DHT22;53144;51.524;5.080;2024-01-06T14:49:41;4.09;91.16
66343;DHT22;53144;51.524;5.080;2024-01-06T14:52:07;4.03;91.63
66343;DHT22;53144;51.524;5.080;2024-01-06T14:54:32;4.09;91.48
66343;DHT22;53144;51.524;5.080;2024-01-06T14:56:59;4.11;91.94
66343;DHT22;53144;51.524;5.080;2024-01-06T14:59:25;4.09;92.08
66343;DHT22;53144;51.524;5.080;2024-01-06T15:01:50;3.99;92.27
66343;DHT22;53144;51.524;5.080;2024-01-06T15:04:16;4.13;92.48
66343;DHT22;53144;51.524;5.080;2024-01-06T15:06:43;4.06;92.79
66343;DHT22;53144;51.524;5.080;2024-01-06T15:09:09;3.99;93.21
66343;DHT22;53144;51.524;5.080;2024-01-06T15:11:34;4.02;93.38
66343;DHT22;53144;51.524;5.080;2024-01-06T15:14:01;3.97;93.96
66343;DHT22;53144;51.524;5.080;2024-01-06T15:16:30;3.97;94.14
66343;DHT22;53144;51.524;5.080;2024-01-06T15:18:55;3.90;94.64
66343;DHT22;53144;51.524;5.080;2024-01-06T15:21:23;3.93;95.08
66343;DHT22;53144;51.524;5.080;2024-01-06T15:23:50;3.81;94.54
66343;DHT22;53144;51.524;5.080;2024-01-06T15:26:23;3.78;94.73
66343;DHT22;53144;51.524;5.080;2024-01-06T15:28:49;3.76;94.68
66343;DHT22;53144;51.524;5.080;2024-01-06T15:31:14;3.86;95.05
66343;DHT22;53144;51.524;5.080;2024-01-06T15:33:39;3.76;94.79
66343;DHT22;53144;51.524;5.080;2024-01-06T15:36:07;3.71;95.27
66343;DHT22;53144;51.524;5.080;2024-01-06T15:38:33;3.69;95.16
66343;DHT22;53144;51.524;5.080;2024-01-06T15:40:58;3.72;94.97
66343;DHT22;53144;51.524;5.080;2024-01-06T15:43:23;3.74;95.04